ilmateenistus.ee keskkonnaagentuur.ee
EETN Tallinn
FTEO31 EETN 270500
TAF EETN 270530Z 2706/2806 12012KT 9999 SCT040 BECMG 2800/2802
    BKN025=

METAR EETN 270950Z 13009KT CAVOK 15/08 Q1008 NOSIG=
Tallinn
EEKA Kärdla
FCEO32 EETN 270300 AAA
TAF AMD EEKA 270700Z 2704/2710 CNL=

METAR EEKA 270950Z NIL=
Kärdla
EEKE Kuressaare
FCEO32 EETN 270300 AAA
TAF AMD EEKE 270700Z 2704/2710 CNL=

METAR EEKE 270950Z 13011KT 9999 FEW015 15/11 Q1005=
Kuressaare
EEPU Pärnu
METAR EEPU 270950Z AUTO 11010KT 080V150 9999 NCD 15/08 Q1007=
Pärnu
EETU Tartu
METAR EETU 270950Z AUTO 11008KT 070V140 9999 NCD 13/08 Q1009=
Tartu
EEEI Ämari
METAR EEEI 270950Z 13008KT 100V160 CAVOK 16/07 Q1008 NOSIG=
Ämari